createdAt,value
2023-05-24T00:00:22.432Z,99.94
2023-05-24T00:01:27.142Z,99.66
2023-05-24T00:02:29.144Z,99.49
2023-05-24T00:03:35.063Z,99.92
2023-05-24T00:04:37.303Z,99.81
2023-05-24T00:05:41.434Z,99.95
2023-05-24T00:06:44.975Z,100.00
2023-05-24T00:07:46.721Z,100.00
2023-05-24T00:08:48.668Z,100.00
2023-05-24T00:09:50.517Z,100.00
2023-05-24T00:10:52.352Z,100.00
2023-05-24T00:11:54.169Z,100.00
2023-05-24T00:12:55.932Z,100.00
2023-05-24T00:13:58.017Z,100.00
2023-05-24T00:14:59.802Z,99.67
2023-05-24T00:16:01.529Z,99.60
2023-05-24T00:17:03.430Z,99.45
2023-05-24T00:18:05.328Z,99.42
2023-05-24T00:19:07.051Z,99.81
2023-05-24T00:20:12.565Z,100.00
2023-05-24T00:21:14.821Z,99.74
2023-05-24T00:22:16.526Z,99.66
2023-05-24T00:23:18.240Z,99.83
2023-05-24T00:24:20.009Z,99.61
2023-05-24T00:25:21.766Z,99.45
2023-05-24T00:26:23.574Z,99.26
2023-05-24T00:27:25.299Z,99.24
2023-05-24T00:28:27.260Z,99.01
2023-05-24T00:29:30.844Z,99.24
2023-05-24T00:30:34.088Z,98.93
2023-05-24T00:31:35.892Z,98.77
2023-05-24T00:32:37.695Z,98.86
2023-05-24T00:33:39.467Z,98.58
2023-05-24T00:34:41.450Z,98.74
2023-05-24T00:35:43.235Z,98.14
2023-05-24T00:36:45.020Z,98.13
2023-05-24T00:37:46.882Z,98.11
2023-05-24T00:38:48.671Z,98.37
2023-05-24T00:39:50.581Z,98.44
2023-05-24T00:40:52.506Z,98.93
2023-05-24T00:41:54.245Z,98.94
2023-05-24T00:42:56.049Z,99.35
2023-05-24T00:43:57.785Z,99.25
2023-05-24T00:44:59.493Z,99.31
2023-05-24T00:46:18.540Z,99.20
2023-05-24T00:47:20.794Z,99.11
2023-05-24T00:48:23.949Z,98.94
2023-05-24T00:49:26.743Z,99.12
2023-05-24T00:50:28.658Z,98.93
2023-05-24T00:51:32.805Z,99.21
2023-05-24T00:52:34.605Z,99.33
2023-05-24T00:53:37.107Z,99.43
2023-05-24T00:54:41.007Z,99.88
2023-05-24T00:55:42.768Z,99.96
2023-05-24T00:56:44.783Z,100.00
2023-05-24T00:57:46.580Z,99.91
2023-05-24T00:58:50.525Z,100.00
2023-05-24T00:59:52.732Z,99.98
2023-05-24T01:00:58.055Z,100.00
2023-05-24T01:02:00.026Z,100.00
2023-05-24T01:03:02.811Z,100.00
2023-05-24T01:04:06.049Z,100.00
2023-05-24T01:05:08.063Z,100.00
2023-05-24T01:06:09.872Z,99.95
2023-05-24T01:07:31.866Z,99.82
2023-05-24T01:08:46.456Z,100.00
2023-05-24T01:09:56.853Z,100.00
2023-05-24T01:11:02.184Z,99.80
2023-05-24T01:12:15.681Z,99.35
2023-05-24T01:13:26.383Z,99.30
2023-05-24T01:14:34.233Z,99.38
2023-05-24T01:15:36.062Z,99.80
2023-05-24T01:16:47.048Z,99.74
2023-05-24T01:18:01.937Z,99.38
2023-05-24T01:19:13.215Z,99.45
2023-05-24T01:20:17.572Z,99.28
2023-05-24T01:21:28.430Z,98.95
2023-05-24T01:22:36.171Z,98.86
2023-05-24T01:24:13.386Z,99.07
2023-05-24T01:25:15.106Z,98.81
2023-05-24T01:26:39.306Z,98.82
2023-05-24T01:27:41.288Z,98.69
2023-05-24T01:28:44.777Z,98.54
2023-05-24T01:29:53.410Z,98.43
2023-05-24T01:30:56.209Z,98.42
2023-05-24T01:31:58.197Z,98.26
2023-05-24T01:33:00.364Z,98.28
2023-05-24T01:34:02.189Z,98.38
2023-05-24T01:35:04.064Z,98.50
2023-05-24T01:36:06.518Z,98.52
2023-05-24T01:37:08.398Z,98.42
2023-05-24T01:38:12.288Z,98.87
2023-05-24T01:39:14.218Z,98.54
2023-05-24T01:40:16.083Z,98.82
2023-05-24T01:41:20.829Z,98.62
2023-05-24T01:42:46.253Z,98.42
2023-05-24T01:44:00.645Z,98.49
2023-05-24T01:45:11.420Z,98.62
2023-05-24T01:46:31.865Z,98.61
2023-05-24T01:47:47.942Z,98.79
2023-05-24T01:49:02.769Z,98.98
2023-05-24T01:50:10.675Z,98.93
2023-05-24T01:51:16.009Z,98.73
2023-05-24T01:52:20.788Z,98.32
2023-05-24T01:53:24.322Z,98.46
2023-05-24T01:54:27.335Z,98.42
2023-05-24T01:55:31.348Z,98.27
2023-05-24T01:56:33.349Z,98.51
2023-05-24T01:57:36.367Z,98.76
2023-05-24T01:58:39.434Z,98.80
2023-05-24T01:59:43.546Z,98.78
2023-05-24T02:00:45.884Z,98.67
2023-05-24T02:01:48.222Z,98.61
2023-05-24T02:02:50.650Z,98.78
2023-05-24T02:03:52.415Z,98.45
2023-05-24T02:04:54.560Z,98.47
2023-05-24T02:05:56.383Z,98.75
2023-05-24T02:06:58.069Z,98.63
2023-05-24T02:07:59.846Z,98.89
2023-05-24T02:09:01.600Z,99.14
2023-05-24T02:10:04.094Z,98.86
2023-05-24T02:11:05.978Z,99.10
2023-05-24T02:12:08.077Z,99.25
2023-05-24T02:13:09.972Z,99.24
2023-05-24T02:14:11.807Z,98.96
2023-05-24T02:15:15.056Z,98.73
2023-05-24T02:16:18.412Z,98.83
2023-05-24T02:17:20.346Z,98.65
2023-05-24T02:18:22.854Z,98.42
2023-05-24T02:19:25.307Z,98.83
2023-05-24T02:20:29.155Z,98.87
2023-05-24T02:21:33.096Z,98.96
2023-05-24T02:22:34.833Z,98.97
2023-05-24T02:23:37.920Z,99.03
2023-05-24T02:24:40.653Z,99.01
2023-05-24T02:25:42.412Z,99.21
2023-05-24T02:26:44.530Z,99.56
2023-05-24T02:27:47.484Z,100.00
2023-05-24T02:28:49.239Z,100.00
2023-05-24T02:29:51.011Z,100.00
2023-05-24T02:30:52.856Z,100.00
2023-05-24T02:31:56.991Z,100.00
2023-05-24T02:32:58.823Z,100.00
2023-05-24T02:34:00.626Z,100.00
2023-05-24T02:35:02.412Z,100.00
2023-05-24T02:36:04.257Z,100.00
2023-05-24T02:37:06.337Z,99.95
2023-05-24T02:38:08.153Z,99.80
2023-05-24T02:39:09.955Z,99.50
2023-05-24T02:40:12.257Z,99.50
2023-05-24T02:41:18.080Z,99.48
2023-05-24T02:42:19.838Z,99.39
2023-05-24T02:43:21.696Z,99.25
2023-05-24T02:44:23.463Z,99.19
2023-05-24T02:45:25.228Z,99.03
2023-05-24T02:46:26.991Z,98.76
2023-05-24T02:47:28.744Z,98.83
2023-05-24T02:48:30.627Z,98.60
2023-05-24T02:49:32.455Z,98.58
2023-05-24T02:50:34.258Z,98.82
2023-05-24T02:51:37.230Z,98.57
2023-05-24T02:52:38.988Z,98.90
2023-05-24T02:53:43.755Z,98.89
2023-05-24T02:54:45.900Z,99.21
2023-05-24T02:55:47.626Z,99.42
2023-05-24T02:56:49.352Z,99.46
2023-05-24T02:57:51.641Z,99.21
2023-05-24T02:58:54.456Z,99.23
2023-05-24T02:59:56.266Z,99.06
2023-05-24T03:00:57.980Z,98.98
2023-05-24T03:02:00.278Z,98.95
2023-05-24T03:03:03.473Z,98.92
2023-05-24T03:04:05.763Z,99.21
2023-05-24T03:05:08.670Z,98.95
2023-05-24T03:06:10.425Z,98.72
2023-05-24T03:07:12.128Z,98.75
2023-05-24T03:08:13.859Z,98.83
2023-05-24T03:09:16.972Z,98.78
2023-05-24T03:10:18.713Z,98.92
2023-05-24T03:11:22.623Z,98.87
2023-05-24T03:12:24.629Z,99.11
2023-05-24T03:13:26.464Z,99.15
2023-05-24T03:14:28.208Z,99.12
2023-05-24T03:15:29.995Z,98.62
2023-05-24T03:16:32.256Z,98.92
2023-05-24T03:17:34.052Z,98.83
2023-05-24T03:18:36.447Z,98.41
2023-05-24T03:19:38.316Z,98.66
2023-05-24T03:20:40.180Z,98.64
2023-05-24T03:21:41.968Z,98.76
2023-05-24T03:22:44.265Z,98.59
2023-05-24T03:23:46.012Z,98.83
2023-05-24T03:24:48.958Z,98.77
2023-05-24T03:25:50.772Z,98.59
2023-05-24T03:26:52.458Z,98.65
2023-05-24T03:27:54.169Z,98.41
2023-05-24T03:28:56.738Z,98.46
2023-05-24T03:29:58.702Z,98.24
2023-05-24T03:31:00.452Z,97.97
2023-05-24T03:32:02.204Z,97.99
2023-05-24T03:33:03.976Z,98.12
2023-05-24T03:34:05.793Z,98.33
2023-05-24T03:35:08.071Z,98.46
2023-05-24T03:36:10.136Z,98.48
2023-05-24T03:37:12.472Z,98.58
2023-05-24T03:38:14.237Z,98.79
2023-05-24T03:39:16.130Z,99.01
2023-05-24T03:40:17.871Z,98.81
2023-05-24T03:41:19.572Z,98.73
2023-05-24T03:42:22.603Z,98.71
2023-05-24T03:43:24.449Z,98.32
2023-05-24T03:44:26.680Z,98.45
2023-05-24T03:45:38.415Z,98.49
2023-05-24T03:46:41.595Z,98.64
2023-05-24T03:47:43.347Z,98.70
2023-05-24T03:48:45.128Z,98.38
2023-05-24T03:49:47.165Z,98.50
2023-05-24T03:50:48.963Z,98.63
2023-05-24T03:51:50.749Z,98.55
2023-05-24T03:52:53.428Z,98.51
2023-05-24T03:53:58.445Z,98.19
2023-05-24T03:55:00.213Z,98.41
2023-05-24T03:56:02.160Z,98.38
2023-05-24T03:57:04.008Z,98.53
2023-05-24T03:58:05.829Z,98.36
2023-05-24T03:59:07.542Z,98.29
2023-05-24T04:00:10.342Z,98.35
2023-05-24T04:01:21.962Z,98.32
2023-05-24T04:02:31.388Z,98.06
2023-05-24T04:03:34.516Z,98.05
2023-05-24T04:04:37.507Z,98.17
2023-05-24T04:05:39.254Z,97.98
2023-05-24T04:06:42.284Z,97.85
2023-05-24T04:07:46.599Z,97.98
2023-05-24T04:08:48.334Z,98.05
2023-05-24T04:09:50.254Z,98.10
2023-05-24T04:10:52.069Z,98.50
2023-05-24T04:11:53.820Z,98.67
2023-05-24T04:12:57.277Z,98.31
2023-05-24T04:14:00.941Z,98.37
2023-05-24T04:15:03.187Z,98.44
2023-05-24T04:16:04.946Z,98.33
2023-05-24T04:17:08.258Z,98.28
2023-05-24T04:18:10.320Z,98.58
2023-05-24T04:19:12.274Z,98.82
2023-05-24T04:20:14.388Z,99.25
2023-05-24T04:21:16.235Z,99.08
2023-05-24T04:22:18.862Z,99.08
2023-05-24T04:23:20.687Z,99.06
2023-05-24T04:24:22.433Z,98.92
2023-05-24T04:25:24.234Z,98.88
2023-05-24T04:26:25.960Z,98.65
2023-05-24T04:27:27.729Z,98.42
2023-05-24T04:28:29.546Z,98.47
2023-05-24T04:29:33.739Z,98.40
2023-05-24T04:30:36.909Z,98.33
2023-05-24T04:31:38.756Z,98.32
2023-05-24T04:32:40.846Z,98.58
2023-05-24T04:33:42.736Z,98.91
2023-05-24T04:34:46.363Z,98.95
2023-05-24T04:35:48.808Z,98.96
2023-05-24T04:36:52.759Z,98.63
2023-05-24T04:37:54.569Z,98.60
2023-05-24T04:38:57.709Z,98.23
2023-05-24T04:39:59.474Z,98.32
2023-05-24T04:41:01.269Z,98.21
2023-05-24T04:42:03.575Z,97.96
2023-05-24T04:43:07.574Z,98.05
2023-05-24T04:44:10.232Z,98.47
2023-05-24T04:45:12.023Z,98.78
2023-05-24T04:46:13.824Z,99.00
2023-05-24T04:47:16.592Z,99.33
2023-05-24T04:48:18.474Z,99.42
2023-05-24T04:49:20.221Z,99.27
2023-05-24T04:50:22.041Z,99.22
2023-05-24T04:51:24.426Z,99.33
2023-05-24T04:52:26.126Z,99.10
2023-05-24T04:53:27.874Z,99.03
2023-05-24T04:54:29.620Z,99.10
2023-05-24T04:55:31.369Z,98.86
2023-05-24T04:56:33.087Z,98.78
2023-05-24T04:57:34.876Z,98.63
2023-05-24T04:58:38.158Z,98.61
2023-05-24T04:59:41.214Z,98.63
2023-05-24T05:00:43.952Z,98.32
2023-05-24T05:01:46.088Z,98.50
2023-05-24T05:02:48.010Z,98.57
2023-05-24T05:03:49.806Z,98.45
2023-05-24T05:04:51.632Z,98.54
2023-05-24T05:05:53.969Z,98.79
2023-05-24T05:06:55.838Z,99.28
2023-05-24T05:07:57.801Z,99.47
2023-05-24T05:08:59.496Z,99.31
2023-05-24T05:10:01.308Z,99.32
2023-05-24T05:11:03.185Z,99.41
2023-05-24T05:12:05.047Z,99.59
2023-05-24T05:13:06.811Z,99.80
2023-05-24T05:14:11.798Z,99.68
2023-05-24T05:15:13.805Z,99.73
2023-05-24T05:16:15.574Z,99.40
2023-05-24T05:17:17.289Z,99.46
2023-05-24T05:18:19.106Z,99.42
2023-05-24T05:19:21.076Z,99.35
2023-05-24T05:20:23.033Z,99.44
2023-05-24T05:21:24.890Z,99.60
2023-05-24T05:22:26.650Z,99.90
2023-05-24T05:23:28.414Z,100.00
2023-05-24T05:24:30.231Z,100.00
2023-05-24T05:25:32.225Z,100.00
2023-05-24T05:26:34.717Z,100.00
2023-05-24T05:27:36.554Z,100.00
2023-05-24T05:28:38.336Z,100.00
2023-05-24T05:29:40.128Z,100.00
2023-05-24T05:30:42.087Z,100.00
2023-05-24T05:31:44.166Z,99.65
2023-05-24T05:32:46.091Z,98.95
2023-05-24T05:33:48.124Z,98.69
2023-05-24T05:34:50.145Z,98.24
2023-05-24T05:35:53.584Z,98.00
2023-05-24T05:36:56.615Z,97.80
2023-05-24T05:37:58.330Z,97.69
2023-05-24T05:39:00.144Z,97.67
2023-05-24T05:40:01.893Z,97.52
2023-05-24T05:41:03.734Z,96.92
2023-05-24T05:42:05.918Z,96.40
2023-05-24T05:43:08.754Z,96.18
2023-05-24T05:44:11.270Z,96.11
2023-05-24T05:45:13.014Z,95.93
2023-05-24T05:46:15.985Z,95.43
2023-05-24T05:47:17.747Z,95.47
2023-05-24T05:48:20.175Z,95.42
2023-05-24T05:49:21.924Z,95.18
2023-05-24T05:50:23.852Z,95.15
2023-05-24T05:51:25.637Z,95.01
2023-05-24T05:52:27.394Z,94.62
2023-05-24T05:53:29.102Z,94.73
2023-05-24T05:54:31.547Z,94.65
2023-05-24T05:55:33.354Z,94.46
2023-05-24T05:56:41.164Z,94.63
2023-05-24T05:57:43.355Z,94.56
2023-05-24T05:58:45.022Z,94.69
2023-05-24T05:59:46.739Z,94.59
2023-05-24T06:00:48.501Z,94.42
2023-05-24T06:01:50.278Z,94.37
2023-05-24T06:02:52.134Z,94.19
2023-05-24T06:03:54.017Z,94.13
2023-05-24T06:04:56.490Z,93.81
2023-05-24T06:05:58.259Z,93.65
2023-05-24T06:07:00.049Z,93.78
2023-05-24T06:08:01.851Z,94.03
2023-05-24T06:09:03.717Z,94.00
2023-05-24T06:10:06.436Z,94.09
2023-05-24T06:11:08.174Z,93.90
2023-05-24T06:12:09.954Z,93.92
2023-05-24T06:13:11.698Z,93.90
2023-05-24T06:14:18.570Z,93.78
2023-05-24T06:15:23.166Z,93.56
2023-05-24T06:16:25.053Z,93.91
2023-05-24T06:17:28.505Z,93.65
2023-05-24T06:18:32.268Z,93.78
2023-05-24T06:19:34.131Z,93.78
2023-05-24T06:20:37.299Z,93.62
2023-05-24T06:21:41.182Z,93.66
2023-05-24T06:22:43.018Z,93.80
2023-05-24T06:23:44.785Z,94.02
2023-05-24T06:24:46.539Z,94.09
2023-05-24T06:25:48.431Z,94.42
2023-05-24T06:26:51.005Z,94.38
2023-05-24T06:27:52.742Z,94.48
2023-05-24T06:28:54.575Z,94.63
2023-05-24T06:29:56.315Z,94.77
2023-05-24T06:30:58.224Z,94.55
2023-05-24T06:32:00.207Z,94.53
2023-05-24T06:33:02.712Z,94.45
2023-05-24T06:34:04.933Z,94.61
2023-05-24T06:35:08.119Z,94.57
2023-05-24T06:36:09.868Z,94.47
2023-05-24T06:37:15.518Z,94.27
2023-05-24T06:38:17.999Z,94.41
2023-05-24T06:39:19.761Z,94.30
2023-05-24T06:40:21.530Z,94.22
2023-05-24T06:41:23.234Z,94.39
2023-05-24T06:42:24.997Z,94.39
2023-05-24T06:43:26.706Z,94.49
2023-05-24T06:44:34.244Z,94.54
2023-05-24T06:45:36.793Z,94.49
2023-05-24T06:46:39.401Z,94.34
2023-05-24T06:47:41.577Z,94.57
2023-05-24T06:48:43.512Z,94.40
2023-05-24T06:49:45.397Z,94.36
2023-05-24T06:50:47.688Z,94.63
2023-05-24T06:51:49.771Z,94.58
2023-05-24T06:52:51.541Z,94.28
2023-05-24T06:53:53.642Z,94.38
2023-05-24T06:54:55.533Z,94.70
2023-05-24T06:55:57.686Z,94.89
2023-05-24T06:56:59.538Z,95.09
2023-05-24T06:58:01.316Z,94.81
2023-05-24T06:59:03.058Z,94.77
2023-05-24T07:00:10.053Z,94.92
2023-05-24T07:01:12.359Z,94.79
2023-05-24T07:02:14.148Z,94.88
2023-05-24T07:03:16.100Z,94.87
2023-05-24T07:04:18.073Z,94.89
2023-05-24T07:05:20.450Z,94.63
2023-05-24T07:06:22.177Z,94.77
2023-05-24T07:07:23.975Z,94.67
2023-05-24T07:08:25.951Z,94.59
2023-05-24T07:09:27.697Z,94.62
2023-05-24T07:10:29.449Z,94.46
2023-05-24T07:11:31.677Z,94.27
2023-05-24T07:12:33.437Z,94.06
2023-05-24T07:13:35.184Z,94.32
2023-05-24T07:14:36.834Z,94.10
2023-05-24T07:15:38.576Z,94.12
2023-05-24T07:16:40.357Z,94.26
2023-05-24T07:17:42.157Z,94.59
2023-05-24T07:18:43.964Z,94.37
2023-05-24T07:19:45.692Z,94.39
2023-05-24T07:20:47.784Z,94.42
2023-05-24T07:21:50.866Z,94.62
2023-05-24T07:22:53.213Z,94.65
2023-05-24T07:23:54.933Z,94.49
2023-05-24T07:24:56.916Z,94.67
2023-05-24T07:25:59.355Z,94.35
2023-05-24T07:27:01.216Z,94.45
2023-05-24T07:28:02.954Z,94.62
2023-05-24T07:29:04.780Z,94.60
2023-05-24T07:30:16.477Z,94.61
2023-05-24T07:31:27.670Z,94.42
2023-05-24T07:32:29.816Z,94.37
2023-05-24T07:33:31.726Z,94.55
2023-05-24T07:34:33.459Z,94.39
2023-05-24T07:35:35.187Z,94.75
2023-05-24T07:36:37.532Z,94.73
2023-05-24T07:37:39.864Z,94.57
2023-05-24T07:38:41.619Z,94.84
2023-05-24T07:39:43.690Z,94.82
2023-05-24T07:40:45.663Z,94.99
2023-05-24T07:41:47.644Z,95.22
2023-05-24T07:42:49.359Z,95.18
2023-05-24T07:43:51.477Z,95.20
2023-05-24T07:44:53.175Z,95.36
2023-05-24T07:45:55.049Z,95.17
2023-05-24T07:46:57.670Z,95.31
2023-05-24T07:47:59.585Z,95.34
2023-05-24T07:49:01.431Z,95.52
2023-05-24T07:50:03.907Z,95.66
2023-05-24T07:51:06.548Z,95.91
2023-05-24T07:52:08.755Z,96.13
2023-05-24T07:53:10.535Z,96.03
2023-05-24T07:54:12.333Z,95.82
2023-05-24T07:55:14.967Z,95.86
2023-05-24T07:56:16.685Z,95.75
2023-05-24T07:57:21.512Z,95.45
2023-05-24T07:58:23.244Z,95.34
2023-05-24T07:59:25.062Z,95.06
2023-05-24T08:00:27.028Z,95.26
2023-05-24T08:01:29.111Z,95.34
2023-05-24T08:02:31.590Z,94.93
2023-05-24T08:03:35.112Z,94.93
2023-05-24T08:04:36.899Z,94.78
2023-05-24T08:05:38.668Z,94.65
2023-05-24T08:06:40.509Z,94.45
2023-05-24T08:07:42.425Z,94.45
2023-05-24T08:08:44.175Z,94.52
2023-05-24T08:09:46.173Z,94.40
2023-05-24T08:10:47.972Z,94.51
2023-05-24T08:11:49.714Z,94.24
2023-05-24T08:12:55.027Z,94.45
2023-05-24T08:13:56.868Z,94.32
2023-05-24T08:14:58.612Z,94.41
2023-05-24T08:16:00.529Z,94.22
2023-05-24T08:17:02.413Z,93.95
2023-05-24T08:18:05.434Z,94.26
2023-05-24T08:19:07.338Z,94.24
2023-05-24T08:20:10.191Z,94.09
2023-05-24T08:21:12.338Z,93.61
2023-05-24T08:22:14.218Z,93.66
2023-05-24T08:23:15.966Z,93.51
2023-05-24T08:24:17.973Z,93.62
2023-05-24T08:25:20.222Z,93.60
2023-05-24T08:26:22.297Z,93.42
2023-05-24T08:27:24.136Z,93.29
2023-05-24T08:28:26.598Z,93.49
2023-05-24T08:29:28.761Z,93.32
2023-05-24T08:30:30.886Z,93.27
2023-05-24T08:31:35.373Z,93.13
2023-05-24T08:32:38.852Z,93.20
2023-05-24T08:33:41.093Z,92.96
2023-05-24T08:34:42.886Z,92.99
2023-05-24T08:35:44.861Z,93.16
2023-05-24T08:36:46.801Z,93.60
2023-05-24T08:37:49.722Z,93.77
2023-05-24T08:38:51.766Z,94.70
2023-05-24T08:39:53.557Z,94.69
2023-05-24T08:40:55.560Z,95.16
2023-05-24T08:42:08.664Z,95.19
2023-05-24T08:43:12.481Z,95.21
2023-05-24T08:44:14.810Z,95.08
2023-05-24T08:45:18.173Z,95.11
2023-05-24T08:46:20.295Z,95.25
2023-05-24T08:47:22.394Z,94.79
2023-05-24T08:48:26.022Z,94.39
2023-05-24T08:49:27.783Z,93.96
2023-05-24T08:50:30.772Z,93.96
2023-05-24T08:51:34.283Z,94.08
2023-05-24T08:52:36.618Z,93.37
2023-05-24T08:53:39.415Z,93.16
2023-05-24T08:54:41.941Z,92.96
2023-05-24T08:55:44.941Z,92.98
2023-05-24T08:56:47.450Z,92.20
2023-05-24T08:57:49.229Z,92.24
2023-05-24T08:58:51.124Z,91.68
2023-05-24T08:59:56.277Z,91.13
2023-05-24T09:00:59.052Z,90.88
2023-05-24T09:02:02.138Z,90.62
2023-05-24T09:03:05.213Z,90.45
2023-05-24T09:04:08.564Z,89.76
2023-05-24T09:05:11.334Z,88.21
2023-05-24T09:06:14.051Z,88.76
2023-05-24T09:07:17.870Z,88.96
2023-05-24T09:08:20.719Z,89.04
2023-05-24T09:09:23.114Z,89.45
2023-05-24T09:10:25.877Z,89.39
2023-05-24T09:11:27.942Z,88.87
2023-05-24T09:13:36.479Z,88.80
2023-05-24T09:14:38.362Z,88.66
2023-05-24T09:15:40.395Z,88.64
2023-05-24T09:16:43.600Z,88.36
2023-05-24T09:17:45.674Z,88.41
2023-05-24T09:18:47.585Z,88.62
2023-05-24T09:19:50.895Z,88.44
2023-05-24T09:20:52.812Z,88.83
2023-05-24T09:21:55.278Z,88.51
2023-05-24T09:22:58.157Z,88.73
2023-05-24T09:23:59.898Z,88.77
2023-05-24T09:25:02.279Z,88.79
2023-05-24T09:26:08.954Z,89.10
2023-05-24T09:27:10.795Z,89.25
2023-05-24T09:28:17.954Z,89.44
2023-05-24T09:29:23.195Z,89.55
2023-05-24T09:30:24.934Z,89.73
2023-05-24T09:31:35.996Z,89.71
2023-05-24T09:32:37.811Z,89.87
2023-05-24T09:33:40.195Z,90.00
2023-05-24T09:34:42.850Z,90.20
2023-05-24T09:35:44.615Z,90.19
2023-05-24T09:36:47.301Z,90.08
2023-05-24T09:37:49.037Z,89.57
2023-05-24T09:39:04.315Z,89.39
2023-05-24T09:40:07.393Z,89.28
2023-05-24T09:41:11.133Z,89.24
2023-05-24T09:42:17.849Z,89.01
2023-05-24T09:43:19.859Z,88.72
2023-05-24T09:44:25.119Z,88.08
2023-05-24T09:45:27.351Z,88.51
2023-05-24T09:46:30.097Z,88.59
2023-05-24T09:47:33.457Z,88.62
2023-05-24T09:48:35.354Z,87.88
2023-05-24T09:49:37.897Z,88.21
2023-05-24T09:50:39.830Z,88.01
2023-05-24T09:51:41.791Z,88.11
2023-05-24T09:52:43.788Z,87.57
2023-05-24T09:53:47.268Z,87.15
2023-05-24T09:54:49.029Z,87.05
2023-05-24T09:55:50.955Z,85.81
2023-05-24T09:56:52.760Z,85.69
2023-05-24T09:58:04.505Z,86.05
2023-05-24T09:59:10.140Z,86.24
2023-05-24T10:00:17.839Z,86.77
2023-05-24T10:01:22.870Z,86.48
2023-05-24T10:02:26.077Z,86.43
2023-05-24T10:03:27.886Z,87.21
2023-05-24T10:04:33.054Z,88.05
2023-05-24T10:05:38.358Z,87.95
2023-05-24T10:06:43.205Z,87.64
2023-05-24T10:07:45.640Z,87.93
2023-05-24T10:08:48.494Z,88.22
2023-05-24T10:09:50.325Z,87.96
2023-05-24T10:10:52.402Z,89.32
2023-05-24T10:11:54.223Z,89.91
2023-05-24T10:12:56.531Z,89.85
2023-05-24T10:13:59.164Z,89.61
2023-05-24T10:15:01.014Z,89.63
2023-05-24T10:16:03.330Z,89.48
2023-05-24T10:17:08.400Z,89.46
2023-05-24T10:18:13.675Z,89.48
2023-05-24T10:19:17.179Z,90.04
2023-05-24T10:20:19.063Z,90.18
2023-05-24T10:21:22.271Z,90.99
2023-05-24T10:22:25.337Z,90.95
2023-05-24T10:23:29.711Z,90.08
2023-05-24T10:24:33.841Z,90.15
2023-05-24T10:25:35.799Z,89.48
2023-05-24T10:26:39.730Z,88.58
2023-05-24T10:27:41.754Z,88.77
2023-05-24T10:28:45.619Z,89.14
2023-05-24T10:29:47.285Z,89.34
2023-05-24T10:30:55.994Z,89.70
2023-05-24T10:31:58.775Z,88.94
2023-05-24T10:33:01.777Z,89.49
2023-05-24T10:34:08.337Z,89.84
2023-05-24T10:35:12.725Z,87.30
2023-05-24T10:36:16.286Z,87.26
2023-05-24T10:37:18.571Z,87.38
2023-05-24T10:38:22.335Z,87.49
2023-05-24T10:39:25.840Z,87.38
2023-05-24T10:40:27.648Z,87.62
2023-05-24T10:41:29.489Z,87.05
2023-05-24T10:42:32.664Z,87.08
2023-05-24T10:43:38.085Z,86.29
2023-05-24T10:44:39.948Z,86.53
2023-05-24T10:45:42.233Z,87.27
2023-05-24T10:47:04.416Z,87.67
2023-05-24T10:48:10.659Z,85.78
2023-05-24T10:49:14.080Z,86.35
2023-05-24T10:50:19.325Z,86.70
2023-05-24T10:51:35.040Z,85.01
2023-05-24T10:52:37.309Z,84.51
2023-05-24T10:53:40.571Z,84.18
2023-05-24T10:55:03.927Z,84.86
2023-05-24T10:56:09.962Z,85.42
2023-05-24T10:57:12.187Z,84.96
2023-05-24T10:58:14.281Z,85.33
2023-05-24T10:59:29.165Z,85.45
2023-05-24T11:00:35.736Z,84.21
2023-05-24T11:01:38.203Z,84.33
2023-05-24T11:02:40.699Z,84.66
2023-05-24T11:03:43.559Z,83.62
2023-05-24T11:04:49.602Z,84.05
2023-05-24T11:05:53.299Z,84.21
2023-05-24T11:06:56.498Z,84.34
2023-05-24T11:08:01.510Z,85.01
2023-05-24T11:09:03.459Z,85.97
2023-05-24T11:10:09.734Z,86.47
2023-05-24T11:11:24.700Z,86.31
2023-05-24T11:12:34.924Z,87.07
2023-05-24T11:13:37.095Z,87.28
2023-05-24T11:14:40.086Z,87.38
2023-05-24T11:15:50.023Z,86.56
2023-05-24T11:16:52.113Z,86.48
2023-05-24T11:18:14.283Z,86.82
2023-05-24T11:19:20.786Z,86.34
2023-05-24T11:20:22.897Z,85.57
2023-05-24T11:21:24.916Z,85.92
2023-05-24T11:22:27.221Z,85.91
2023-05-24T11:23:29.185Z,85.68
2023-05-24T11:24:31.102Z,85.13
2023-05-24T11:25:37.697Z,84.76
2023-05-24T11:26:40.290Z,85.13
2023-05-24T11:27:44.395Z,86.17
2023-05-24T11:28:46.980Z,86.38
2023-05-24T11:29:49.021Z,87.12
2023-05-24T11:30:51.084Z,86.89
2023-05-24T11:32:05.803Z,87.28
2023-05-24T11:33:23.679Z,87.00
2023-05-24T11:34:27.546Z,86.87
2023-05-24T11:35:30.119Z,86.34
2023-05-24T11:36:33.450Z,86.46
2023-05-24T11:37:45.673Z,86.48
2023-05-24T11:38:49.156Z,86.30
2023-05-24T11:39:54.642Z,86.56
2023-05-24T11:40:58.781Z,85.43
2023-05-24T11:42:01.600Z,85.72
2023-05-24T11:43:05.977Z,84.79
2023-05-24T11:44:08.596Z,83.51
2023-05-24T11:45:11.186Z,83.16
2023-05-24T11:46:12.920Z,83.07
2023-05-24T11:47:14.611Z,83.54
2023-05-24T11:48:17.180Z,84.28
2023-05-24T11:49:18.925Z,83.86
2023-05-24T11:50:25.326Z,84.42
2023-05-24T11:51:29.750Z,85.73
2023-05-24T11:52:31.729Z,85.80
2023-05-24T11:53:33.525Z,85.72
2023-05-24T11:54:37.659Z,85.74
2023-05-24T11:55:41.597Z,85.51
2023-05-24T11:56:43.510Z,85.91
2023-05-24T11:57:50.223Z,84.94
2023-05-24T11:58:56.425Z,85.07
2023-05-24T11:59:58.994Z,85.16
2023-05-24T12:01:01.078Z,85.10
2023-05-24T12:02:03.903Z,85.22
2023-05-24T12:03:08.222Z,85.37
2023-05-24T12:04:10.395Z,84.54
2023-05-24T12:05:14.375Z,84.82
2023-05-24T12:06:16.100Z,85.17
2023-05-24T12:07:18.206Z,85.28
2023-05-24T12:08:20.831Z,85.59
2023-05-24T12:09:23.910Z,85.51
2023-05-24T12:10:25.674Z,85.66
2023-05-24T12:11:28.612Z,86.03
2023-05-24T12:12:38.766Z,86.33
2023-05-24T12:13:47.359Z,86.05
2023-05-24T12:14:49.113Z,86.37
2023-05-24T12:15:55.554Z,86.94
2023-05-24T12:16:58.840Z,87.56
2023-05-24T12:18:01.141Z,87.41
2023-05-24T12:19:07.429Z,87.98
2023-05-24T12:20:16.173Z,88.65
2023-05-24T12:21:18.869Z,89.05
2023-05-24T12:22:27.444Z,89.25
2023-05-24T12:23:32.209Z,89.41
2023-05-24T12:24:34.551Z,89.88
2023-05-24T12:25:37.770Z,90.29
2023-05-24T12:26:43.471Z,90.34
2023-05-24T12:27:48.379Z,90.36
2023-05-24T12:28:55.354Z,90.37
2023-05-24T12:29:57.238Z,90.44
2023-05-24T12:30:59.080Z,90.12
2023-05-24T12:32:01.452Z,90.14
2023-05-24T12:33:03.834Z,89.89
2023-05-24T12:34:07.580Z,90.09
2023-05-24T12:35:11.419Z,89.43
2023-05-24T12:36:13.547Z,88.89
2023-05-24T12:37:15.470Z,88.69
2023-05-24T12:38:25.453Z,89.06
2023-05-24T12:39:32.374Z,89.81
2023-05-24T12:40:34.122Z,90.10
2023-05-24T12:41:36.629Z,89.50
2023-05-24T12:42:38.426Z,89.93
2023-05-24T12:43:41.167Z,89.23
2023-05-24T12:44:43.140Z,89.37
2023-05-24T12:45:44.876Z,89.64
2023-05-24T12:46:46.695Z,89.99
2023-05-24T12:47:52.296Z,90.29
2023-05-24T12:48:54.148Z,89.83
2023-05-24T12:49:55.924Z,90.33
2023-05-24T12:50:57.733Z,90.65
2023-05-24T12:52:00.185Z,90.21
2023-05-24T12:53:02.014Z,91.10
2023-05-24T12:54:05.789Z,91.50
2023-05-24T12:55:08.130Z,91.43
2023-05-24T12:56:09.956Z,91.35
2023-05-24T12:57:11.735Z,91.59
2023-05-24T12:58:16.626Z,91.77
2023-05-24T12:59:18.623Z,91.25
2023-05-24T13:00:21.641Z,91.42
2023-05-24T13:01:24.560Z,91.28
2023-05-24T13:02:26.882Z,91.37
2023-05-24T13:03:28.647Z,91.36
2023-05-24T13:04:34.074Z,91.68
2023-05-24T13:05:35.993Z,91.42
2023-05-24T13:06:38.398Z,91.18
2023-05-24T13:07:40.333Z,91.26
2023-05-24T13:08:42.505Z,91.14
2023-05-24T13:09:44.296Z,91.43
2023-05-24T13:10:46.159Z,91.21
2023-05-24T13:11:47.897Z,91.14
2023-05-24T13:12:49.804Z,90.65
2023-05-24T13:13:52.056Z,90.74
2023-05-24T13:14:54.567Z,90.37
2023-05-24T13:15:56.404Z,89.85
2023-05-24T13:16:58.214Z,90.13
2023-05-24T13:17:59.974Z,89.94
2023-05-24T13:19:01.750Z,89.97
2023-05-24T13:20:06.450Z,90.14
2023-05-24T13:21:11.369Z,90.51
2023-05-24T13:22:14.622Z,90.24
2023-05-24T13:23:16.360Z,90.01
2023-05-24T13:24:18.185Z,90.15
2023-05-24T13:25:22.977Z,89.75
2023-05-24T13:26:24.922Z,89.77
2023-05-24T13:27:26.904Z,89.91
2023-05-24T13:28:30.278Z,89.59
2023-05-24T13:29:37.089Z,89.91
2023-05-24T13:30:44.625Z,90.12
2023-05-24T13:31:46.921Z,90.09
2023-05-24T13:32:48.983Z,89.98
2023-05-24T13:33:52.241Z,90.22
2023-05-24T13:34:54.013Z,90.34